Time,TemperatureF,DewpointF,PressureIn,WindDirection,WindDirectionDegrees,WindSpeedMPH,WindSpeedGustMPH,Humidity,HourlyPrecipIn,Conditions,Clouds,dailyrainin,SoftwareType,DateUTC
2013-07-31 00:22:00,80.0,75.0,30.14,NE,39,0.0,0.0,85,0.00,,,0.00,,2013-07-31 04:22:00,
2013-07-31 00:32:00,80.0,75.0,30.14,NE,39,0.0,0.0,84,0.00,,,0.00,,2013-07-31 04:32:00,
2013-07-31 00:42:00,80.0,75.0,30.15,NE,39,0.0,0.0,85,0.00,,,0.00,,2013-07-31 04:42:00,
2013-07-31 00:52:00,80.0,75.0,30.15,NE,39,0.0,0.0,85,0.00,,,0.00,,2013-07-31 04:52:00,
2013-07-31 01:02:00,80.0,75.0,30.14,NE,39,0.0,0.0,86,0.00,,,0.00,,2013-07-31 05:02:00,
2013-07-31 01:12:00,79.0,75.0,30.14,SSE,162,1.0,3.0,88,0.00,,,0.00,,2013-07-31 05:12:00,
2013-07-31 01:22:00,79.0,75.0,30.14,SE,146,0.0,0.0,89,0.00,,,0.00,,2013-07-31 05:22:00,
2013-07-31 01:32:00,79.0,75.0,30.14,SE,146,0.0,0.0,89,0.00,,,0.00,,2013-07-31 05:32:00,
2013-07-31 01:42:00,79.0,75.0,30.13,SE,146,0.0,0.0,89,0.00,,,0.00,,2013-07-31 05:42:00,
2013-07-31 01:52:00,79.0,76.0,30.13,SE,146,0.0,0.0,90,0.00,,,0.00,,2013-07-31 05:52:00,
2013-07-31 02:02:00,78.0,75.0,30.12,SE,146,0.0,0.0,90,0.00,,,0.00,,2013-07-31 06:02:00,
2013-07-31 02:12:00,78.0,75.0,30.12,SE,146,0.0,0.0,90,0.00,,,0.00,,2013-07-31 06:12:00,
2013-07-31 02:32:00,78.0,75.0,30.10,SE,146,0.0,0.0,92,0.00,,,0.00,,2013-07-31 06:32:00,
2013-07-31 02:43:00,78.0,75.0,30.10,SE,146,0.0,0.0,92,0.00,,,0.00,,2013-07-31 06:43:00,
2013-07-31 02:53:00,78.0,76.0,30.09,SE,146,0.0,0.0,93,0.00,,,0.00,,2013-07-31 06:53:00,
2013-07-31 03:02:00,78.0,76.0,30.09,SE,146,0.0,0.0,94,0.00,,,0.00,,2013-07-31 07:02:00,
2013-07-31 03:12:00,78.0,76.0,30.08,SE,146,0.0,0.0,94,0.00,,,0.00,,2013-07-31 07:12:00,
2013-07-31 03:22:00,77.0,75.0,30.09,SE,146,0.0,0.0,94,0.00,,,0.00,,2013-07-31 07:22:00,
2013-07-31 03:32:00,77.0,75.0,30.08,SE,146,0.0,0.0,95,0.00,,,0.00,,2013-07-31 07:32:00,
2013-07-31 03:43:00,77.0,75.0,30.09,SE,146,0.0,0.0,95,0.00,,,0.00,,2013-07-31 07:43:00,
2013-07-31 03:52:00,77.0,76.0,30.09,SE,146,0.0,0.0,96,0.00,,,0.00,,2013-07-31 07:52:00,
2013-07-31 04:02:00,77.0,76.0,30.09,SE,146,0.0,0.0,96,0.00,,,0.00,,2013-07-31 08:02:00,
2013-07-31 04:12:00,77.0,76.0,30.08,SE,146,0.0,0.0,96,0.00,,,0.00,,2013-07-31 08:12:00,
2013-07-31 04:42:00,77.0,76.0,30.08,SE,146,0.0,0.0,96,0.00,,,0.00,,2013-07-31 08:42:00,
2013-07-31 04:53:00,77.0,76.0,30.08,SE,146,0.0,0.0,97,0.00,,,0.00,,2013-07-31 08:53:00,
2013-07-31 05:02:00,76.0,75.0,30.08,SE,146,0.0,0.0,97,0.00,,,0.00,,2013-07-31 09:02:00,
2013-07-31 05:32:00,76.0,75.0,30.09,SE,146,0.0,0.0,97,0.00,,,0.00,,2013-07-31 09:32:00,
2013-07-31 05:43:00,76.0,75.0,30.09,SE,146,0.0,0.0,98,0.00,,,0.00,,2013-07-31 09:43:00,
2013-07-31 06:44:00,75.0,74.0,30.10,SE,146,0.0,0.0,98,0.00,,,0.00,,2013-07-31 10:44:00,
2013-07-31 06:52:00,75.0,74.0,30.10,SE,146,0.0,0.0,98,0.00,,,0.00,,2013-07-31 10:52:00,
2013-07-31 07:43:00,75.0,75.0,30.11,SE,146,0.0,0.0,100,0.00,,,0.00,,2013-07-31 11:43:00,
2013-07-31 08:02:00,77.0,77.0,30.12,SE,146,0.0,0.0,100,0.00,,,0.00,,2013-07-31 12:02:00,
2013-07-31 08:33:00,79.0,79.0,30.12,NE,56,0.0,0.0,100,0.00,,,0.00,,2013-07-31 12:33:00,
2013-07-31 08:43:00,80.0,80.0,30.13,NE,39,0.0,0.0,100,0.00,,,0.00,,2013-07-31 12:43:00,
2013-07-31 08:52:00,80.0,80.0,30.13,NE,39,0.0,0.0,99,0.00,,,0.00,,2013-07-31 12:52:00,
2013-07-31 09:33:00,83.0,78.0,30.13,ENE,58,0.0,0.0,86,0.00,,,0.00,,2013-07-31 13:33:00,
2013-07-31 10:43:00,85.0,76.0,30.14,East,87,0.0,0.0,75,0.00,,,0.00,,2013-07-31 14:43:00,
2013-07-31 10:53:00,85.0,76.0,30.14,East,87,0.0,0.0,74,0.00,,,0.00,,2013-07-31 14:53:00,
2013-07-31 11:12:00,86.0,75.0,30.14,NE,49,0.0,0.0,70,0.00,,,0.00,,2013-07-31 15:12:00,
2013-07-31 11:33:00,86.0,75.0,30.13,NE,49,0.0,0.0,69,0.00,,,0.00,,2013-07-31 15:33:00,
2013-07-31 11:43:00,87.0,75.0,30.13,NE,49,0.0,0.0,67,0.00,,,0.00,,2013-07-31 15:43:00,
2013-07-31 11:52:00,87.0,74.0,30.13,NE,49,0.0,0.0,65,0.00,,,0.00,,2013-07-31 15:52:00,
2013-07-31 12:02:00,87.0,74.0,30.12,NE,39,2.0,2.0,65,0.00,,,0.00,,2013-07-31 16:02:00,
2013-07-31 12:12:00,87.0,73.0,30.12,NW,319,3.0,3.0,63,0.00,,,0.00,,2013-07-31 16:12:00,
2013-07-31 12:44:00,88.0,73.0,30.11,SSW,203,2.0,2.0,61,0.00,,,0.00,,2013-07-31 16:44:00,
2013-07-31 12:52:00,88.0,72.0,30.11,SW,226,2.0,2.0,60,0.00,,,0.00,,2013-07-31 16:52:00,
2013-07-31 13:43:00,89.0,73.0,30.09,WSW,240,0.0,0.0,60,0.00,,,0.00,,2013-07-31 17:43:00,
2013-07-31 13:53:00,89.0,73.0,30.09,SW,235,2.0,0.0,60,0.00,,,0.00,,2013-07-31 17:53:00,
2013-07-31 14:32:00,89.0,72.0,30.06,North,359,5.0,5.0,58,0.00,,,0.00,,2013-07-31 18:32:00,
2013-07-31 14:43:00,88.0,72.0,30.06,North,357,3.0,3.0,59,0.00,,,0.00,,2013-07-31 18:43:00,
2013-07-31 14:52:00,87.0,73.0,30.07,North,359,2.0,0.0,63,0.00,,,0.00,,2013-07-31 18:52:00,
2013-07-31 16:22:00,77.0,75.0,30.04,North,359,0.0,0.0,94,0.19,,,0.00,,2013-07-31 20:22:00,
2013-07-31 16:43:00,78.0,76.0,30.03,North,359,0.0,0.0,95,0.19,,,0.00,,2013-07-31 20:43:00,
2013-07-31 17:02:00,79.0,77.0,30.03,North,359,0.0,0.0,95,0.19,,,0.00,,2013-07-31 21:02:00,
2013-07-31 17:32:00,80.0,77.0,30.03,ENE,75,0.0,0.0,90,0.03,,,0.00,,2013-07-31 21:32:00,
2013-07-31 18:13:00,82.0,78.0,30.03,ENE,75,0.0,0.0,87,0.03,,,0.00,,2013-07-31 22:13:00,
2013-07-31 18:43:00,84.0,77.0,30.01,North,359,0.0,0.0,79,0.00,,,0.00,,2013-07-31 22:43:00,
2013-07-31 18:53:00,84.0,76.0,30.01,East,89,0.0,0.0,78,0.00,,,0.00,,2013-07-31 22:53:00,
2013-07-31 19:42:00,84.0,75.0,30.03,ENE,73,0.0,0.0,75,0.00,,,0.00,,2013-07-31 23:42:00,
2013-07-31 19:52:00,84.0,75.0,30.03,NE,45,0.0,0.0,75,0.00,,,0.00,,2013-07-31 23:52:00,
2013-07-31 20:22:00,84.0,75.0,30.04,NE,45,0.0,0.0,75,0.00,,,0.00,,2013-08-01 00:22:00,
2013-07-31 20:32:00,83.0,75.0,30.03,North,359,0.0,0.0,76,0.00,,,0.00,,2013-08-01 00:32:00,
2013-07-31 20:43:00,82.0,71.0,30.04,NE,56,0.0,0.0,70,0.00,,,0.00,,2013-08-01 00:43:00,
2013-07-31 20:52:00,81.0,71.0,30.04,East,80,0.0,0.0,71,0.00,,,0.00,,2013-08-01 00:52:00,
2013-07-31 21:02:00,81.0,72.0,30.04,South,177,1.0,0.0,74,0.00,,,0.00,,2013-08-01 01:02:00,
2013-07-31 21:12:00,80.0,72.0,30.05,South,177,0.0,0.0,76,0.00,,,0.00,,2013-08-01 01:12:00,
2013-07-31 21:33:00,79.0,71.0,30.06,WSW,240,0.0,0.0,77,0.00,,,0.00,,2013-08-01 01:33:00,
2013-07-31 21:43:00,79.0,71.0,30.06,WSW,240,0.0,0.0,77,0.00,,,0.00,,2013-08-01 01:43:00,
2013-07-31 22:02:00,79.0,72.0,30.08,WSW,240,0.0,0.0,79,0.00,,,0.00,,2013-08-01 02:02:00,
2013-07-31 22:12:00,78.0,71.0,30.09,WSW,240,0.0,0.0,79,0.00,,,0.00,,2013-08-01 02:12:00,
2013-07-31 23:43:00,77.0,72.0,30.08,NE,41,2.0,2.0,86,0.00,,,0.00,,2013-08-01 03:43:00,
2013-07-31 23:53:00,77.0,72.0,30.08,ENE,60,0.0,0.0,85,0.00,,,0.00,,2013-08-01 03:53:00,